Terminal Aerodrome Forecast
Issued by NWS Portland, OR

Home | Current Version | Previous Version | Text Only | Print | Product List | Glossary On
Versions: 1 2 3 4 5 6 7 8 9 10 11 12 13 14 15 16 17 18 19 20 21 22 23 24 25 26 27 28 29 30 31 32 33 34 35 36 37 38 39 40 41 42 43 44 45 46 47 48 49 50
000
FTUS46 KPQR 271229 AAA
TAFEUG
TAF AMD
KEUG 271229Z 2712/2812 VRB03KT 3SM BR VCFG SCT001 BKN005
      TEMPO 2712/2714 1/2SM FG VV002
     FM271900 36008KT P6SM FEW030
     FM280500 VRB03KT P6SM SKC
     FM281000 00000KT 1 1/2SM BR MIFG SCT001=

USA.gov is the U.S. government's official web portal to all federal, state and local government web resources and services.